Terminal Aerodrome Forecast
Issued by NWS

Current Version | Previous Version | Text Only | Print | Product List | Glossary On
Versions: 1 2 3 4 5 6 7 8 9 10 11 12 13 14 15 16 17 18 19 20 21 22 23 24 25 26 27 28 29 30 31
000
FTUS45 KGJT 210535
TAFMTJ
TAF
KMTJ 210535Z 2106/2206 14006KT P6SM SCT250
     FM210800 14005KT P6SM BKN080
     FM211200 15005KT P6SM SCT080
     FM212000 20006KT P6SM BKN250
     FM212200 22012G15KT P6SM BKN200
     FM220100 25006KT P6SM OVC100
     FM220500 15012KT P6SM OVC100=

USA.gov is the U.S. government's official web portal to all federal, state and local government web resources and services.